• Join FlightAware (Why Join?)
  • Login
  • US Flag 
04:35PM EDT


 

Airport Tracker/Info


-or-


 

Live Flight TrackerFlight Track Log ✈ VH-CBT ✈ 09-May-2013 ✈ YBUD / BDB - YBAF

Flight Track Log - Related Links

Times and Time Zones

All times are in EDT time to prevent confusion due to time zone crossing. See the VH-CBT flight status page for this flight to view local times or setup timezone preferences in your user account.

Time Position Orientation Groundspeed Altitude Reporting Facility
EDT Latitude Longitude Course Direction KTS MPH feet Rate Location/Type
03:17AM -25.0951 152.3430 210° Southwest 11,000  Level Aus ATC (Calculated)
03:17AM -25.1579 152.3506 352° North 11,000 -1,500 Level Aus ATC (Calculated)
03:20AM -25.2598 152.3630 174° South  Level FlightAware Approximate
03:20AM -25.0982 152.3411 174° South 115 132 6,700  Level Aus ATC (RADAR)
03:20AM -25.1176 152.3430 175° South 120 138 7,200 840 Climbing Aus ATC (RADAR)
03:21AM -25.1378 152.3461 172° South 112 129 7,800 780 Climbing Aus ATC (RADAR)
03:21AM -25.1573 152.3504 169° South 123 142 8,200 780 Climbing Aus ATC (RADAR)
03:22AM -25.1843 152.3545 172° South 126 145 8,900 960 Climbing Aus ATC (RADAR)
03:23AM -25.2016 152.3555 177° South 123 142 9,400 780 Climbing Aus ATC (RADAR)
03:23AM -25.2225 152.3565 178° South 127 146 9,800 780 Climbing Aus ATC (RADAR)
03:24AM -25.2657 152.3580 178° South 136 157 10,800 840 Climbing Aus ATC (RADAR)
03:25AM -25.2835 152.3629 166° South 135 155 11,200 720 Climbing Aus ATC (RADAR)
03:25AM -25.3060 152.3650 175° South 137 158 11,600 780 Climbing Aus ATC (RADAR)
03:26AM -25.3328 152.3687 173° South 144 166 12,200 840 Climbing Aus ATC (RADAR)
03:27AM -25.3559 152.3743 168° South 148 170 12,700 780 Climbing Aus ATC (RADAR)
03:27AM -25.3860 152.3802 170° South 146 168 13,300 720 Climbing Aus ATC (RADAR)
03:28AM -25.4076 152.3810 178° South 153 176 13,600 780 Climbing Aus ATC (RADAR)
03:29AM -25.4497 152.3875 172° South 153 176 14,500 900 Climbing Aus ATC (RADAR)
03:29AM -25.4673 152.3899 173° South 153 176 14,900 840 Climbing Aus ATC (RADAR)
03:30AM -25.4844 152.3920 174° South 149 171 15,200 480 Climbing Aus ATC (RADAR)
03:30AM -25.5098 152.3940 176° South 158 182 15,400 60 Climbing Aus ATC (RADAR)
03:31AM -25.5529 152.3959 178° South 188 216 15,300 -120 Descending Aus ATC (RADAR)
03:32AM -25.5801 152.3955 181° South 193 222 15,300  Level Aus ATC (RADAR)
03:33AM -25.6243 152.4029 171° South 191 220 15,300  Level Aus ATC (RADAR)
03:33AM -25.6423 152.4052 173° South 193 222 15,300  Level Aus ATC (RADAR)
03:34AM -25.6779 152.4129 169° South 195 224 15,300  Level Aus ATC (RADAR)
03:35AM -25.7310 152.4220 171° South 191 220 15,300  Level Aus ATC (RADAR)
03:35AM -25.7494 152.4235 176° South 195 224 15,300  Level Aus ATC (RADAR)
03:35AM -25.7815 152.4259 176° South 198 228 15,300  Level Aus ATC (RADAR)
03:36AM -25.8224 152.4297 175° South 196 226 15,300  Level Aus ATC (RADAR)
03:37AM -25.8584 152.4330 175° South 193 222 15,300 60 Level Aus ATC (RADAR)
03:38AM -25.8996 152.4369 175° South 196 226 15,400  Climbing Aus ATC (RADAR)
03:38AM -25.9219 152.4401 173° South 195 224 15,300 -240 Descending Aus ATC (RADAR)
03:39AM -25.9539 152.4451 172° South 200 230 15,200  Descending Aus ATC (RADAR)
03:40AM -26.0213 152.4585 170° South 199 229 15,300 60 Climbing Aus ATC (RADAR)
03:40AM -26.0346 152.4608 171° South 197 227 15,300  Level Aus ATC (RADAR)
03:41AM -26.0716 152.4634 176° South 198 228 15,300  Level Aus ATC (RADAR)
03:42AM -26.1169 152.4660 177° South 196 226 15,300 60 Level Aus ATC (RADAR)
03:42AM -26.1493 152.4649 182° South 195 224 15,400 60 Climbing Aus ATC (RADAR)
03:43AM -26.1903 152.4731 170° South 199 229 15,400 -120 Level Aus ATC (RADAR)
03:43AM -26.2126 152.4790 167° South 198 228 15,300  Descending Aus ATC (RADAR)
03:44AM -26.2614 152.4945 164° South 198 228 15,400  Climbing Aus ATC (RADAR)
03:45AM -26.2929 152.4992 172° South 195 224 15,300 -120 Descending Aus ATC (RADAR)
03:45AM -26.3057 152.5009 173° South 191 220 15,300  Level Aus ATC (RADAR)
03:46AM -26.3431 152.4986 183° South 198 228 15,300  Level Aus ATC (RADAR)
03:46AM -26.3840 152.5004 178° South 197 227 15,300  Level Aus ATC (RADAR)
03:47AM -26.4203 152.5039 175° South 198 228 15,300  Level Aus ATC (RADAR)
03:48AM -26.4652 152.5140 169° South 196 226 15,300  Level Aus ATC (RADAR)
03:48AM -26.4785 152.5168 169° South 195 224 15,300  Level Aus ATC (RADAR)
03:49AM -26.5127 152.5209 174° South 182 209 15,300  Level Aus ATC (RADAR)
03:50AM -26.5432 152.4592 241° Southwest 185 213 15,300  Level Aus ATC (RADAR)
03:50AM -26.5466 152.4459 254° West 182 209 15,300  Level Aus ATC (RADAR)
03:51AM -26.5565 152.4133 251° West 187 215 15,300  Level Aus ATC (RADAR)
03:52AM -26.5692 152.3691 252° West 179 206 15,300 60 Level Aus ATC (RADAR)
03:52AM -26.5835 152.3413 240° Southwest 177 204 15,400 60 Climbing Aus ATC (RADAR)
03:53AM -26.6234 152.3277 197° South 193 222 15,400  Level Aus ATC (RADAR)
03:53AM -26.6456 152.3343 165° South 203 234 15,400  Level Aus ATC (RADAR)
03:54AM -26.6677 152.3526 143° Southeast 195 224 15,400  Level Aus ATC (RADAR)
03:55AM -26.7126 152.3959 139° Southeast 195 224 15,400  Level Aus ATC (RADAR)
03:55AM -26.7300 152.4126 139° Southeast 196 226 15,400  Level Aus ATC (RADAR)
03:56AM -26.7541 152.4364 139° Southeast 196 226 15,400  Level Aus ATC (RADAR)
03:57AM -26.7916 152.4665 144° Southeast 198 228 15,400  Level Aus ATC (RADAR)
03:57AM -26.8173 152.4875 144° Southeast 196 226 15,400  Level Aus ATC (RADAR)
03:58AM -26.8390 152.5053 144° Southeast 192 221 15,400  Level Aus ATC (RADAR)
03:59AM -26.8669 152.5327 139° Southeast 196 226 15,400  Level Aus ATC (RADAR)
04:00AM -26.9040 152.5708 138° Southeast 195 224 15,400 -120 Level Aus ATC (RADAR)
04:00AM -26.9304 152.5906 146° Southeast 194 223 15,300 -720 Descending Aus ATC (RADAR)
04:01AM -26.9529 152.6028 154° Southeast 209 241 14,700 -1,140 Descending Aus ATC (RADAR)
04:01AM -26.9855 152.6204 154° Southeast 219 252 14,200 -840 Descending Aus ATC (RADAR)
04:02AM -27.0128 152.6626 126° Southeast 223 257 13,600 -1,020 Descending Aus ATC (RADAR)
04:02AM -27.0305 152.6975 120° Southeast 219 252 12,900 -1,140 Descending Aus ATC (RADAR)
04:03AM -27.0457 152.7270 120° Southeast 214 246 12,400 -1,080 Descending Aus ATC (RADAR)
04:04AM -27.0767 152.7521 144° Southeast 212 244 11,700 -1,080 Descending Aus ATC (RADAR)
04:04AM -27.1114 152.7551 176° South 211 243 11,100 -1,020 Descending Aus ATC (RADAR)
04:05AM -27.1654 152.7506 184° South 211 243 10,200 -1,020 Descending Aus ATC (RADAR)
04:06AM -27.1893 152.7464 189° South 209 241 9,800 -1,020 Descending Aus ATC (RADAR)
04:06AM -27.2256 152.7591 163° South 203 234 9,100 -960 Descending Aus ATC (RADAR)
04:07AM -27.2597 152.7841 147° Southeast 191 220 8,500 -840 Descending Aus ATC (RADAR)
04:08AM -27.2865 152.7985 155° Southeast 180 207 8,000 -720 Descending Aus ATC (RADAR)
04:08AM -27.3290 152.8115 165° South 168 193 7,500 -660 Descending Aus ATC (RADAR)
04:09AM -27.3480 152.8169 166° South 167 192 7,200 -1,020 Descending Aus ATC (RADAR)
04:09AM -27.3757 152.8249 166° South 175 201 6,500 -1,080 Descending Aus ATC (RADAR)
04:10AM -27.4211 152.8372 166° South 181 208 5,600 -1,080 Descending Aus ATC (RADAR)
04:11AM -27.4409 152.8425 167° South 176 203 5,100 -1,200 Descending Aus ATC (RADAR)
04:11AM -27.4617 152.8657 135° Southeast 183 211 4,400 -960 Descending Aus ATC (RADAR)
04:12AM -27.4836 152.8923 133° Southeast 171 197 3,900 -480 Descending Aus ATC (RADAR)
04:13AM -27.5001 152.9114 135° Southeast 145 167 3,800 -720 Descending Aus ATC (RADAR)
04:13AM -27.5222 152.9397 131° Southeast 155 178 3,000 -660 Descending Aus ATC (RADAR)
04:14AM -27.5364 152.9576 132° Southeast 150 173 3,000  Level Aus ATC (RADAR)
04:14AM -27.5519 152.9759 134° Southeast 137 158 3,000 -720 Level Aus ATC (RADAR)
04:16AM -27.5775 153.0227 122° Southeast 154 177 1,800 -960 Descending Aus ATC (RADAR)
04:16AM -27.5838 153.0424 110° East 155 178 1,500 -720 Descending Aus ATC (RADAR)
04:17AM -27.5623 153.0580 33° Northeast 169 194 1,100 -360 Descending Aus ATC (RADAR)
04:17AM -27.5463 153.0245 298° West 178 205 1,100  Level Aus ATC (RADAR)
04:18AM -27.5397 152.9986 286° West 149 171 1,100  Level Aus ATC (RADAR)